createdAt,value
2022-08-25T00:01:33.456Z,71.13
2022-08-25T00:03:36.056Z,71.28
2022-08-25T00:05:41.567Z,71.40
2022-08-25T00:07:43.275Z,71.15
2022-08-25T00:09:46.161Z,71.37
2022-08-25T00:11:52.272Z,71.27
2022-08-25T00:13:58.650Z,71.53
2022-08-25T00:16:03.668Z,71.76
2022-08-25T00:18:16.610Z,71.50
2022-08-25T00:20:22.625Z,71.23
2022-08-25T00:22:24.491Z,71.20
2022-08-25T00:24:32.003Z,71.02
2022-08-25T00:26:34.307Z,70.93
2022-08-25T00:28:37.136Z,70.83
2022-08-25T00:30:40.000Z,71.24
2022-08-25T00:32:42.396Z,71.13
2022-08-25T00:35:14.079Z,70.68
2022-08-25T00:41:17.962Z,70.81
2022-08-25T00:43:25.392Z,71.08
2022-08-25T00:45:56.550Z,70.75
2022-08-25T00:47:59.998Z,70.54
2022-08-25T00:50:02.188Z,71.10
2022-08-25T00:52:09.109Z,71.64
2022-08-25T00:54:15.854Z,71.98
2022-08-25T00:56:18.583Z,71.78
2022-08-25T00:58:25.738Z,71.79
2022-08-25T01:00:36.934Z,71.85
2022-08-25T01:02:45.201Z,72.04
2022-08-25T01:04:47.819Z,71.72
2022-08-25T01:06:51.827Z,71.47
2022-08-25T01:08:54.729Z,71.74
2022-08-25T01:11:02.463Z,71.36
2022-08-25T01:13:16.445Z,71.27
2022-08-25T01:15:18.925Z,71.39
2022-08-25T01:17:22.045Z,71.45
2022-08-25T01:19:23.852Z,71.49
2022-08-25T01:21:27.468Z,71.69
2022-08-25T01:23:29.845Z,73.36
2022-08-25T01:25:42.533Z,75.26
2022-08-25T01:27:44.481Z,76.08
2022-08-25T01:29:46.607Z,78.02
2022-08-25T01:31:49.794Z,78.33
2022-08-25T01:33:51.751Z,78.85
2022-08-25T01:35:54.640Z,79.09
2022-08-25T01:37:57.239Z,79.31
2022-08-25T01:39:59.113Z,80.28
2022-08-25T01:42:06.664Z,80.14
2022-08-25T01:44:08.816Z,80.22
2022-08-25T01:46:17.861Z,80.27
2022-08-25T01:48:20.005Z,80.00
2022-08-25T01:50:21.983Z,80.12
2022-08-25T01:52:34.639Z,79.72
2022-08-25T01:54:36.778Z,79.38
2022-08-25T01:56:38.862Z,78.68
2022-08-25T01:58:50.067Z,78.09
2022-08-25T02:00:54.587Z,78.06
2022-08-25T02:02:56.502Z,77.61
2022-08-25T02:04:58.517Z,77.23
2022-08-25T02:07:04.495Z,76.91
2022-08-25T02:09:09.471Z,76.12
2022-08-25T02:11:13.706Z,75.93
2022-08-25T02:13:15.959Z,75.93
2022-08-25T02:15:17.800Z,75.82
2022-08-25T02:17:19.727Z,75.61
2022-08-25T02:19:23.590Z,76.09
2022-08-25T02:21:25.993Z,76.16
2022-08-25T02:23:28.123Z,76.49
2022-08-25T02:25:30.451Z,76.56
2022-08-25T02:27:32.237Z,76.20
2022-08-25T02:29:34.332Z,76.01
2022-08-25T02:31:36.773Z,75.48
2022-08-25T02:33:38.662Z,74.96
2022-08-25T02:35:40.557Z,74.33
2022-08-25T02:37:42.515Z,73.85
2022-08-25T02:39:45.015Z,73.70
2022-08-25T02:41:46.920Z,73.62
2022-08-25T02:43:49.879Z,73.37
2022-08-25T02:45:56.536Z,72.89
2022-08-25T02:47:58.981Z,72.72
2022-08-25T02:50:00.918Z,72.68
2022-08-25T02:52:02.833Z,72.53
2022-08-25T02:54:06.251Z,72.92
2022-08-25T02:56:10.699Z,72.49
2022-08-25T02:58:12.731Z,72.50
2022-08-25T03:00:15.690Z,72.30
2022-08-25T03:02:18.272Z,72.47
2022-08-25T03:04:20.087Z,72.44
2022-08-25T03:06:23.370Z,72.38
2022-08-25T03:08:26.148Z,72.27
2022-08-25T03:10:28.188Z,72.25
2022-08-25T03:12:31.195Z,72.08
2022-08-25T03:14:33.495Z,71.72
2022-08-25T03:16:36.018Z,71.73
2022-08-25T03:18:39.340Z,71.70
2022-08-25T03:20:42.378Z,71.99
2022-08-25T03:22:44.448Z,71.96
2022-08-25T03:24:46.324Z,72.00
2022-08-25T03:26:54.488Z,71.90
2022-08-25T03:28:56.423Z,72.00
2022-08-25T03:31:00.421Z,72.02
2022-08-25T03:33:02.608Z,72.00
2022-08-25T03:35:04.831Z,71.69
2022-08-25T03:37:08.658Z,72.10
2022-08-25T03:39:10.486Z,72.01
2022-08-25T03:41:16.433Z,71.74
2022-08-25T03:43:18.927Z,71.57
2022-08-25T03:45:21.028Z,71.54
2022-08-25T03:47:25.671Z,71.34
2022-08-25T03:49:27.409Z,71.46
2022-08-25T03:51:36.136Z,71.31
2022-08-25T03:53:37.972Z,71.39
2022-08-25T03:55:42.414Z,71.09
2022-08-25T03:57:44.782Z,71.69
2022-08-25T03:59:47.175Z,71.78
2022-08-25T04:01:54.141Z,71.51
2022-08-25T04:03:56.788Z,71.63
2022-08-25T04:06:03.313Z,71.63
2022-08-25T04:08:07.460Z,71.53
2022-08-25T04:10:11.204Z,72.06
2022-08-25T04:12:16.408Z,72.00
2022-08-25T04:14:21.567Z,72.05
2022-08-25T04:16:31.512Z,71.93
2022-08-25T04:18:34.468Z,71.53
2022-08-25T04:20:36.291Z,71.36
2022-08-25T04:22:39.029Z,71.49
2022-08-25T04:24:46.660Z,71.47
2022-08-25T04:26:51.005Z,71.87
2022-08-25T04:28:54.089Z,72.50
2022-08-25T04:30:59.204Z,72.83
2022-08-25T04:33:01.064Z,73.10
2022-08-25T04:35:03.039Z,73.37
2022-08-25T04:37:07.792Z,73.13
2022-08-25T04:39:09.628Z,73.00
2022-08-25T04:41:15.445Z,72.75
2022-08-25T04:43:17.158Z,72.43
2022-08-25T04:45:31.961Z,71.96
2022-08-25T04:47:38.565Z,71.41
2022-08-25T04:49:40.756Z,71.01
2022-08-25T04:51:43.120Z,70.93
2022-08-25T04:53:45.200Z,71.08
2022-08-25T04:55:48.306Z,70.99
2022-08-25T04:57:50.092Z,71.00
2022-08-25T04:59:52.940Z,71.32
2022-08-25T05:01:55.224Z,70.90
2022-08-25T05:04:00.434Z,70.81
2022-08-25T05:06:06.203Z,70.48
2022-08-25T05:08:34.524Z,70.05
2022-08-25T05:10:40.776Z,69.21
2022-08-25T05:12:44.666Z,69.54
2022-08-25T05:14:53.136Z,69.07
2022-08-25T05:16:58.324Z,69.36
2022-08-25T05:19:01.640Z,69.68
2022-08-25T05:21:06.235Z,70.09
2022-08-25T05:23:10.724Z,70.05
2022-08-25T05:25:12.870Z,69.83
2022-08-25T05:27:15.032Z,69.67
2022-08-25T05:29:17.588Z,68.99
2022-08-25T05:31:21.360Z,69.22
2022-08-25T05:33:23.171Z,68.56
2022-08-25T05:35:25.271Z,68.98
2022-08-25T05:37:27.243Z,68.88
2022-08-25T05:39:32.608Z,69.04
2022-08-25T05:41:34.760Z,68.99
2022-08-25T05:43:38.116Z,68.43
2022-08-25T05:45:40.815Z,68.23
2022-08-25T05:47:43.142Z,67.96
2022-08-25T05:49:45.437Z,67.91
2022-08-25T05:51:47.841Z,67.78
2022-08-25T05:53:50.767Z,68.12
2022-08-25T05:55:54.260Z,68.48
2022-08-25T05:57:56.244Z,68.13
2022-08-25T05:59:58.100Z,67.92
2022-08-25T06:02:18.723Z,67.87
2022-08-25T06:04:22.702Z,67.57
2022-08-25T06:06:24.557Z,67.70
2022-08-25T06:08:30.612Z,67.83
2022-08-25T06:10:32.822Z,68.13
2022-08-25T06:12:41.378Z,67.66
2022-08-25T06:14:45.561Z,67.76
2022-08-25T06:16:50.251Z,67.61
2022-08-25T06:18:52.154Z,67.13
2022-08-25T06:20:54.070Z,67.62
2022-08-25T06:22:56.799Z,67.27
2022-08-25T06:24:58.586Z,67.48
2022-08-25T06:27:01.048Z,67.17
2022-08-25T06:29:03.352Z,67.25
2022-08-25T06:31:06.165Z,67.21
2022-08-25T06:33:08.133Z,66.95
2022-08-25T06:35:12.550Z,66.46
2022-08-25T06:37:14.388Z,66.32
2022-08-25T06:39:16.772Z,66.42
2022-08-25T06:41:18.711Z,66.36
2022-08-25T06:43:21.445Z,66.61
2022-08-25T06:45:23.180Z,66.67
2022-08-25T06:47:25.379Z,66.72
2022-08-25T06:49:31.842Z,65.97
2022-08-25T06:51:36.438Z,65.57
2022-08-25T06:53:38.826Z,65.95
2022-08-25T06:55:40.987Z,66.07
2022-08-25T06:57:42.730Z,66.04
2022-08-25T06:59:44.522Z,65.06
2022-08-25T07:01:46.864Z,64.04
2022-08-25T07:03:52.666Z,64.65
2022-08-25T07:05:56.594Z,63.72
2022-08-25T07:07:59.156Z,63.59
2022-08-25T07:10:01.059Z,62.86
2022-08-25T07:12:04.538Z,63.25
2022-08-25T07:14:07.445Z,64.35
2022-08-25T07:16:11.348Z,64.53
2022-08-25T07:18:13.423Z,63.87
2022-08-25T07:20:15.596Z,63.56
2022-08-25T07:22:18.119Z,62.25
2022-08-25T07:24:20.074Z,62.43
2022-08-25T07:26:37.309Z,61.33
2022-08-25T07:28:47.306Z,61.60
2022-08-25T07:30:52.137Z,61.09
2022-08-25T07:32:55.017Z,60.49
2022-08-25T07:35:15.677Z,59.30
2022-08-25T07:37:47.715Z,58.96
2022-08-25T07:39:45.304Z,58.41
2022-08-25T07:41:47.119Z,58.92
2022-08-25T07:43:53.620Z,58.87
2022-08-25T07:45:55.991Z,58.44
2022-08-25T07:48:00.086Z,58.45
2022-08-25T07:50:02.166Z,58.53
2022-08-25T07:52:07.778Z,58.84
2022-08-25T07:54:10.942Z,59.33
2022-08-25T07:56:15.468Z,59.85
2022-08-25T07:58:18.369Z,60.79
2022-08-25T08:00:20.727Z,60.84
2022-08-25T08:02:24.747Z,60.96
2022-08-25T08:04:26.768Z,60.68
2022-08-25T08:06:29.953Z,60.26
2022-08-25T08:08:32.573Z,59.72
2022-08-25T08:10:53.901Z,59.21
2022-08-25T08:12:56.442Z,58.33
2022-08-25T08:14:59.226Z,58.04
2022-08-25T08:17:07.210Z,57.15
2022-08-25T08:19:09.143Z,57.38
2022-08-25T08:21:22.920Z,57.71
2022-08-25T08:23:28.087Z,57.23
2022-08-25T08:25:30.523Z,57.04
2022-08-25T08:27:32.614Z,56.78
2022-08-25T08:29:38.286Z,57.62
2022-08-25T08:31:40.188Z,58.17
2022-08-25T08:33:51.341Z,58.52
2022-08-25T08:36:04.853Z,58.26
2022-08-25T08:38:14.531Z,58.15
2022-08-25T08:40:20.417Z,60.06
2022-08-25T08:42:53.629Z,60.59
2022-08-25T08:45:19.856Z,59.44
2022-08-25T08:47:45.389Z,59.39
2022-08-25T08:49:56.481Z,58.65
2022-08-25T08:52:01.821Z,58.96
2022-08-25T08:54:15.071Z,58.72
2022-08-25T08:56:32.701Z,58.71
2022-08-25T08:58:37.535Z,58.88
2022-08-25T09:00:51.840Z,58.68
2022-08-25T09:02:59.035Z,56.96
2022-08-25T09:05:11.781Z,56.96
2022-08-25T09:07:18.390Z,57.20
2022-08-25T09:09:29.551Z,57.23
2022-08-25T09:12:05.486Z,57.01
2022-08-25T09:14:19.817Z,56.92
2022-08-25T09:16:51.371Z,56.97
2022-08-25T09:19:02.577Z,56.15
2022-08-25T09:21:16.765Z,55.68
2022-08-25T09:23:35.321Z,54.42
2022-08-25T09:25:55.614Z,54.51
2022-08-25T09:28:07.182Z,54.50
2022-08-25T09:30:16.323Z,54.99
2022-08-25T09:32:24.176Z,54.54
2022-08-25T09:34:32.230Z,53.52
2022-08-25T09:36:37.710Z,52.35
2022-08-25T09:38:40.549Z,52.69
2022-08-25T09:40:46.124Z,53.23
2022-08-25T09:42:57.722Z,53.26
2022-08-25T09:45:00.845Z,52.96
2022-08-25T09:47:13.997Z,52.33
2022-08-25T09:49:17.020Z,52.05
2022-08-25T09:51:30.155Z,52.01
2022-08-25T09:53:49.554Z,50.60
2022-08-25T09:56:07.833Z,50.93
2022-08-25T09:58:27.734Z,50.54
2022-08-25T10:00:36.814Z,50.27
2022-08-25T10:02:39.441Z,49.55
2022-08-25T10:04:41.220Z,50.43
2022-08-25T10:06:45.508Z,49.59
2022-08-25T10:08:47.308Z,49.50
2022-08-25T10:10:55.296Z,48.76
2022-08-25T10:13:00.874Z,47.66
2022-08-25T10:15:29.983Z,48.40
2022-08-25T10:17:33.613Z,47.21
2022-08-25T10:19:35.484Z,47.67
2022-08-25T10:21:42.104Z,47.80
2022-08-25T10:23:51.695Z,47.33
2022-08-25T10:25:57.763Z,46.91
2022-08-25T10:28:13.627Z,46.04
2022-08-25T10:30:28.629Z,46.03
2022-08-25T10:32:55.389Z,45.72
2022-08-25T10:35:00.094Z,43.98
2022-08-25T10:37:15.836Z,45.37
2022-08-25T10:39:33.897Z,44.80
2022-08-25T10:41:39.702Z,44.31
2022-08-25T10:43:50.387Z,44.52
2022-08-25T10:46:07.273Z,44.73
2022-08-25T10:48:37.131Z,42.58
2022-08-25T10:50:50.920Z,43.41
2022-08-25T10:53:11.826Z,42.16
2022-08-25T10:55:29.633Z,42.95
2022-08-25T10:57:58.363Z,43.45
2022-08-25T11:00:18.768Z,44.27
2022-08-25T11:02:35.383Z,44.07
2022-08-25T11:04:52.671Z,44.16
2022-08-25T11:07:10.344Z,44.19
2022-08-25T11:09:16.353Z,44.34
2022-08-25T11:11:32.770Z,44.19
2022-08-25T11:13:58.214Z,43.97
2022-08-25T11:16:17.051Z,43.21
2022-08-25T11:18:21.109Z,43.08
2022-08-25T11:20:33.620Z,42.83
2022-08-25T11:22:45.888Z,43.17
2022-08-25T11:25:08.199Z,44.30
2022-08-25T11:27:18.904Z,43.39
2022-08-25T11:29:27.402Z,44.02
2022-08-25T11:31:29.699Z,44.09
2022-08-25T11:33:31.822Z,44.15
2022-08-25T11:35:36.194Z,44.26
2022-08-25T11:38:06.053Z,44.05
2022-08-25T11:40:34.384Z,44.38
2022-08-25T11:43:02.331Z,44.17
2022-08-25T11:45:27.084Z,43.69
2022-08-25T11:47:47.277Z,43.73
2022-08-25T11:49:52.233Z,42.80
2022-08-25T11:51:54.507Z,43.58
2022-08-25T11:54:08.096Z,43.78
2022-08-25T11:56:32.664Z,43.80
2022-08-25T11:58:39.307Z,44.58
2022-08-25T12:00:43.813Z,44.42
2022-08-25T12:02:51.288Z,43.74
2022-08-25T12:04:55.485Z,43.74
2022-08-25T12:07:06.166Z,43.37
2022-08-25T12:09:13.307Z,43.48
2022-08-25T12:11:37.958Z,43.45
2022-08-25T12:13:43.376Z,43.16
2022-08-25T12:15:48.277Z,41.90
2022-08-25T12:18:11.583Z,42.67
2022-08-25T12:20:13.911Z,42.69
2022-08-25T12:22:15.716Z,42.97
2022-08-25T12:24:21.455Z,43.37
2022-08-25T12:26:57.507Z,43.98
2022-08-25T12:29:08.048Z,44.36
2022-08-25T12:31:31.614Z,44.83
2022-08-25T12:33:40.341Z,44.56
2022-08-25T12:36:01.834Z,44.15
2022-08-25T12:38:14.733Z,43.87
2022-08-25T12:40:25.704Z,43.74
2022-08-25T12:42:36.424Z,43.84
2022-08-25T12:44:48.262Z,43.06
2022-08-25T12:47:06.891Z,43.15
2022-08-25T12:49:15.868Z,43.75
2022-08-25T12:51:20.358Z,43.32
2022-08-25T12:53:43.869Z,43.07
2022-08-25T12:56:00.206Z,43.13
2022-08-25T12:58:02.614Z,43.80
2022-08-25T13:00:16.250Z,42.88
2022-08-25T13:02:31.264Z,42.99
2022-08-25T13:05:07.151Z,43.18
2022-08-25T13:07:09.545Z,43.28
2022-08-25T13:09:36.490Z,42.70
2022-08-25T13:11:38.971Z,41.96
2022-08-25T13:13:49.467Z,41.97
2022-08-25T13:16:01.159Z,42.40
2022-08-25T13:18:23.944Z,42.90
2022-08-25T13:20:30.669Z,42.77
2022-08-25T13:22:32.429Z,42.48
2022-08-25T13:24:40.916Z,42.19
2022-08-25T13:26:48.241Z,42.15
2022-08-25T13:28:56.091Z,42.44
2022-08-25T13:31:10.250Z,42.45
2022-08-25T13:33:21.813Z,42.14
2022-08-25T13:35:33.015Z,42.74
2022-08-25T13:37:35.173Z,42.17
2022-08-25T13:39:55.815Z,41.19
2022-08-25T13:41:58.468Z,40.99
2022-08-25T13:44:06.307Z,41.32
2022-08-25T13:46:19.667Z,41.62
2022-08-25T13:48:49.502Z,41.80
2022-08-25T13:50:52.870Z,42.04
2022-08-25T13:53:16.452Z,42.34
2022-08-25T13:55:27.727Z,41.45
2022-08-25T13:57:30.673Z,42.13
2022-08-25T13:59:40.196Z,42.71
2022-08-25T14:01:49.565Z,42.93
2022-08-25T14:03:53.306Z,42.46
2022-08-25T14:06:06.824Z,41.61
2022-08-25T14:08:32.802Z,41.89
2022-08-25T14:10:42.519Z,41.70
2022-08-25T14:12:47.313Z,40.83
2022-08-25T14:15:01.552Z,41.24
2022-08-25T14:17:21.947Z,41.20
2022-08-25T14:19:30.612Z,40.40
2022-08-25T14:21:33.358Z,40.64
2022-08-25T14:23:38.024Z,40.00
2022-08-25T14:25:40.450Z,40.30
2022-08-25T14:28:03.611Z,40.09
2022-08-25T14:30:06.873Z,40.46
2022-08-25T14:32:10.137Z,40.25
2022-08-25T14:34:23.352Z,40.59
2022-08-25T14:36:26.339Z,40.85
2022-08-25T14:38:28.355Z,41.24
2022-08-25T14:40:34.259Z,41.37
2022-08-25T14:42:36.289Z,41.64
2022-08-25T14:44:39.437Z,41.07
2022-08-25T14:46:43.809Z,40.97
2022-08-25T14:48:47.552Z,40.87
2022-08-25T14:50:52.796Z,41.66
2022-08-25T14:52:55.556Z,42.11
2022-08-25T14:55:01.681Z,41.63
2022-08-25T14:57:03.644Z,41.84
2022-08-25T14:59:10.413Z,41.70
2022-08-25T15:01:16.887Z,41.03
2022-08-25T15:03:24.612Z,41.36
2022-08-25T15:05:28.475Z,41.16
2022-08-25T15:07:51.056Z,41.64
2022-08-25T15:09:52.813Z,42.14
2022-08-25T15:11:56.361Z,42.80
2022-08-25T15:14:01.513Z,42.57
2022-08-25T15:16:04.495Z,42.40
2022-08-25T15:18:06.790Z,42.60
2022-08-25T15:20:09.396Z,43.00
2022-08-25T15:22:12.974Z,43.30
2022-08-25T15:24:17.471Z,43.67
2022-08-25T15:26:20.335Z,43.29
2022-08-25T15:28:22.625Z,43.47
2022-08-25T15:30:30.860Z,43.55
2022-08-25T15:32:33.264Z,44.10
2022-08-25T15:34:35.577Z,44.00
2022-08-25T15:36:37.575Z,43.74
2022-08-25T15:38:43.962Z,43.45
2022-08-25T15:40:45.966Z,43.67
2022-08-25T15:42:48.168Z,43.62
2022-08-25T15:44:52.805Z,43.77
2022-08-25T15:46:56.403Z,44.14
2022-08-25T15:48:59.694Z,44.31
2022-08-25T15:51:02.090Z,44.39
2022-08-25T15:53:08.388Z,43.93
2022-08-25T15:55:13.427Z,44.28
2022-08-25T15:57:24.328Z,43.94
2022-08-25T15:59:27.820Z,44.28
2022-08-25T16:01:30.461Z,44.05
2022-08-25T16:03:32.409Z,44.19
2022-08-25T16:05:39.429Z,44.39
2022-08-25T16:07:51.691Z,44.03
2022-08-25T16:09:57.136Z,43.93
2022-08-25T16:12:04.004Z,44.56
2022-08-25T16:14:18.608Z,45.01
2022-08-25T16:16:23.021Z,45.14
2022-08-25T16:18:26.173Z,44.28
2022-08-25T16:20:30.874Z,44.45
2022-08-25T16:22:32.692Z,44.27
2022-08-25T16:24:34.673Z,44.13
2022-08-25T16:26:48.047Z,44.39
2022-08-25T16:28:50.496Z,44.50
2022-08-25T16:30:52.633Z,43.84
2022-08-25T16:32:55.101Z,44.52
2022-08-25T16:34:58.628Z,44.36
2022-08-25T16:37:00.755Z,44.52
2022-08-25T16:39:02.794Z,44.40
2022-08-25T16:41:12.842Z,44.32
2022-08-25T16:43:14.891Z,44.72
2022-08-25T16:45:18.316Z,45.04
2022-08-25T16:47:20.384Z,44.98
2022-08-25T16:49:27.071Z,44.85
2022-08-25T16:51:29.795Z,44.87
2022-08-25T16:53:53.655Z,44.42
2022-08-25T16:56:04.451Z,45.18
2022-08-25T16:58:07.604Z,45.13
2022-08-25T17:00:15.600Z,45.51
2022-08-25T17:02:17.497Z,45.62
2022-08-25T17:04:27.623Z,46.03
2022-08-25T17:06:41.281Z,45.86
2022-08-25T17:08:52.789Z,46.10
2022-08-25T17:10:55.996Z,46.14
2022-08-25T17:12:57.786Z,46.27
2022-08-25T17:15:00.163Z,46.90
2022-08-25T17:17:02.667Z,46.75
2022-08-25T17:19:11.897Z,47.60
2022-08-25T17:21:24.579Z,47.39
2022-08-25T17:23:30.186Z,48.10
2022-08-25T17:25:41.258Z,48.32
2022-08-25T17:27:44.832Z,48.51
2022-08-25T17:29:48.165Z,48.28
2022-08-25T17:31:51.141Z,48.38
2022-08-25T17:33:53.527Z,48.43
2022-08-25T17:35:56.993Z,48.80
2022-08-25T17:37:58.911Z,48.64
2022-08-25T17:40:03.003Z,48.89
2022-08-25T17:42:06.605Z,48.62
2022-08-25T17:44:08.792Z,49.13
2022-08-25T17:46:12.590Z,49.21
2022-08-25T17:48:15.334Z,49.12
2022-08-25T17:50:17.260Z,49.58
2022-08-25T17:52:22.456Z,49.84
2022-08-25T17:54:27.861Z,50.24
2022-08-25T17:56:30.552Z,49.94
2022-08-25T17:58:33.273Z,50.26
2022-08-25T18:00:42.502Z,49.96
2022-08-25T18:02:47.087Z,50.32
2022-08-25T18:04:48.805Z,50.24
2022-08-25T18:06:51.874Z,50.13
2022-08-25T18:08:57.515Z,50.31
2022-08-25T18:11:01.670Z,49.88
2022-08-25T18:13:03.765Z,49.87
2022-08-25T18:15:07.121Z,50.03
2022-08-25T18:17:10.470Z,49.99
2022-08-25T18:19:14.463Z,50.26
2022-08-25T18:21:18.321Z,50.45
2022-08-25T18:23:20.744Z,50.46
2022-08-25T18:25:23.381Z,50.81
2022-08-25T18:27:26.638Z,50.26
2022-08-25T18:29:28.623Z,51.21
2022-08-25T18:31:30.447Z,51.39
2022-08-25T18:33:32.980Z,51.52
2022-08-25T18:35:34.709Z,51.61
2022-08-25T18:37:55.435Z,51.32
2022-08-25T18:40:16.155Z,51.54
2022-08-25T18:42:18.238Z,51.79
2022-08-25T18:44:20.159Z,51.76
2022-08-25T18:46:22.596Z,52.00
2022-08-25T18:48:26.580Z,51.88
2022-08-25T18:50:31.104Z,52.52
2022-08-25T18:52:33.185Z,52.84
2022-08-25T18:54:36.120Z,52.73
2022-08-25T18:56:38.359Z,53.07
2022-08-25T18:58:40.652Z,52.93
2022-08-25T19:00:44.715Z,53.17
2022-08-25T19:02:52.929Z,53.09
2022-08-25T19:04:55.623Z,53.40
2022-08-25T19:06:57.838Z,53.58
2022-08-25T19:08:59.618Z,53.70
2022-08-25T19:11:01.902Z,53.50
2022-08-25T19:13:08.246Z,53.24
2022-08-25T19:15:11.026Z,53.42
2022-08-25T19:17:14.173Z,53.50
2022-08-25T19:19:16.087Z,53.78
2022-08-25T19:21:22.485Z,53.78
2022-08-25T19:23:25.203Z,54.06
2022-08-25T19:25:33.288Z,53.87
2022-08-25T19:27:36.801Z,54.10
2022-08-25T19:29:39.068Z,54.24
2022-08-25T19:31:44.718Z,53.80
2022-08-25T19:33:51.323Z,54.05
2022-08-25T19:35:53.389Z,54.11
2022-08-25T19:37:56.694Z,54.10
2022-08-25T19:40:01.100Z,54.45
2022-08-25T19:42:03.392Z,54.67
2022-08-25T19:44:05.331Z,54.61
2022-08-25T19:46:07.651Z,54.55
2022-08-25T19:48:10.104Z,55.08
2022-08-25T19:50:16.799Z,55.11
2022-08-25T19:52:26.550Z,55.06
2022-08-25T19:54:44.343Z,55.29
2022-08-25T19:56:54.875Z,55.18
2022-08-25T19:58:57.090Z,55.70
2022-08-25T20:00:59.494Z,55.86
2022-08-25T20:03:01.871Z,55.84
2022-08-25T20:05:05.408Z,55.35
2022-08-25T20:07:07.920Z,55.28
2022-08-25T20:09:36.009Z,55.32
2022-08-25T20:11:38.077Z,54.91
2022-08-25T20:13:40.627Z,55.26
2022-08-25T20:15:42.389Z,55.05
2022-08-25T20:17:45.103Z,55.05
2022-08-25T20:19:47.049Z,55.19
2022-08-25T20:21:48.764Z,55.07
2022-08-25T20:24:09.164Z,55.24
2022-08-25T20:26:11.549Z,55.69
2022-08-25T20:28:14.351Z,55.69
2022-08-25T20:30:22.842Z,55.46
2022-08-25T20:32:25.073Z,55.05
2022-08-25T20:34:30.366Z,55.05
2022-08-25T20:36:36.821Z,55.45
2022-08-25T20:38:41.411Z,55.78
2022-08-25T20:40:44.248Z,55.34
2022-08-25T20:42:47.762Z,55.36
2022-08-25T20:44:49.542Z,55.33
2022-08-25T20:46:51.648Z,55.06
2022-08-25T20:48:57.678Z,55.25
2022-08-25T20:50:59.576Z,55.42
2022-08-25T20:53:01.662Z,55.34
2022-08-25T20:55:04.696Z,55.18
2022-08-25T20:57:07.899Z,55.29
2022-08-25T20:59:11.684Z,54.97
2022-08-25T21:01:37.951Z,55.45
2022-08-25T21:03:42.532Z,55.24
2022-08-25T21:05:44.656Z,55.38
2022-08-25T21:07:48.276Z,55.61
2022-08-25T21:09:51.065Z,54.95
2022-08-25T21:11:54.517Z,55.36
2022-08-25T21:13:59.096Z,55.00
2022-08-25T21:16:02.681Z,54.90
2022-08-25T21:18:08.506Z,55.29
2022-08-25T21:20:13.702Z,55.37
2022-08-25T21:22:15.745Z,55.40
2022-08-25T21:24:19.865Z,55.82
2022-08-25T21:26:29.465Z,55.85
2022-08-25T21:28:32.317Z,55.90
2022-08-25T21:30:34.067Z,55.97
2022-08-25T21:32:35.970Z,55.93
2022-08-25T21:34:39.583Z,56.05
2022-08-25T21:36:42.106Z,55.84
2022-08-25T21:38:43.841Z,56.04
2022-08-25T21:40:45.594Z,55.90
2022-08-25T21:42:51.037Z,55.77
2022-08-25T21:44:52.931Z,55.57
2022-08-25T21:46:54.935Z,55.65
2022-08-25T21:48:58.417Z,55.33
2022-08-25T21:51:06.356Z,55.48
2022-08-25T21:53:09.078Z,55.49
2022-08-25T21:55:15.696Z,55.00
2022-08-25T21:57:23.831Z,55.13
2022-08-25T21:59:28.402Z,55.38
2022-08-25T22:01:31.352Z,54.93
2022-08-25T22:03:34.785Z,55.52
2022-08-25T22:05:39.466Z,55.06
2022-08-25T22:07:43.977Z,54.95
2022-08-25T22:09:45.946Z,55.22
2022-08-25T22:11:48.025Z,55.02
2022-08-25T22:13:51.255Z,54.82
2022-08-25T22:15:56.530Z,55.03
2022-08-25T22:17:58.304Z,54.77
2022-08-25T22:20:00.885Z,54.65
2022-08-25T22:22:03.201Z,55.07
2022-08-25T22:24:05.456Z,54.75
2022-08-25T22:26:07.449Z,54.60
2022-08-25T22:28:09.526Z,54.56
2022-08-25T22:30:16.754Z,54.84
2022-08-25T22:32:19.102Z,54.57
2022-08-25T22:34:32.037Z,54.95
2022-08-25T22:36:36.552Z,54.57
2022-08-25T22:38:38.240Z,54.56
2022-08-25T22:40:40.669Z,54.56
2022-08-25T22:42:47.390Z,54.91
2022-08-25T22:44:49.958Z,54.86
2022-08-25T22:46:52.737Z,55.08
2022-08-25T22:48:55.037Z,55.02
2022-08-25T22:51:05.594Z,54.97
2022-08-25T22:53:09.123Z,54.85
2022-08-25T22:55:11.246Z,55.16
2022-08-25T22:57:14.044Z,54.89
2022-08-25T22:59:15.704Z,54.97
2022-08-25T23:01:19.662Z,54.85
2022-08-25T23:03:21.782Z,54.78
2022-08-25T23:05:23.604Z,54.81
2022-08-25T23:07:26.083Z,54.73
2022-08-25T23:09:27.786Z,54.69
2022-08-25T23:11:29.564Z,54.39
2022-08-25T23:13:34.177Z,54.87
2022-08-25T23:15:36.497Z,54.85
2022-08-25T23:17:38.686Z,55.01
2022-08-25T23:19:40.442Z,54.96
2022-08-25T23:22:02.146Z,54.51
2022-08-25T23:24:04.781Z,54.91
2022-08-25T23:26:07.882Z,54.78
2022-08-25T23:28:09.575Z,54.86
2022-08-25T23:30:12.663Z,55.08
2022-08-25T23:32:18.369Z,55.26
2022-08-25T23:34:20.091Z,55.11
2022-08-25T23:36:21.954Z,54.93
2022-08-25T23:38:23.885Z,55.23
2022-08-25T23:40:25.650Z,55.19
2022-08-25T23:42:28.765Z,55.67
2022-08-25T23:44:30.775Z,56.00
2022-08-25T23:46:34.968Z,55.74
2022-08-25T23:48:37.427Z,55.67
2022-08-25T23:50:45.940Z,55.72
2022-08-25T23:52:47.783Z,55.74
2022-08-25T23:54:49.723Z,56.17
2022-08-25T23:56:52.602Z,56.37
2022-08-25T23:58:54.423Z,56.42
